San Diego, California
Traffic Map
Current Weather Conditions
San Diego, California
Clear
Clear
68°
Feels Like: 68°
Wind Chill: 68° Ceiling: Unl
Heat Index: 68° Visibility: 7mi
Dew Point: 62° Wind: 5mph
Humidity: 81% Direction: 360° (N)
Pressure: 29.94in Gusts: 0mph
Raw Report DataKSAN 021451Z 36004KT 7SM CLR 20/17 A2994 RMK AO2 SLP139 T02000167 53018
Traffic Incident Summary
Active as of:
Severity:
Category:
InformationThere was an issue retrieving the traffic information for this location. Please try a different location or try again shortly.
Advertisements
Track Severe Weather on mobile